Time;durP1;ratioP1;P1;durP2;ratioP2;P2;SDS_P1;SDS_P2;PMS_P1;PMS_P2;Temp;Humidity;BMP_temperature;BMP_pressure;BME280_temperature;BME280_humidity;BME280_pressure;Samples;Min_cycle;Max_cycle;Signal;HPM_P1;HPM_P2
2022/06/09 00:56:28;;;;;;;25.10;4.88;;;;;;;11.75;100.00;100779.94;5065638;23;20058;-85
2022/06/09 01:05:40;;;;;;;29.33;5.05;;;;;;;11.51;100.00;100770.53;5217952;22;20062;-85
2022/06/09 01:08:05;;;;;;;27.63;5.35;;;;;;;11.37;100.00;100758.69;5051369;28;20021;-85
2022/06/09 01:10:31;;;;;;;20.67;5.00;;;;;;;11.43;100.00;100767.56;5051334;28;20036;-85
2022/06/09 01:12:57;;;;;;;25.75;5.00;;;;;;;11.35;100.00;100766.19;5048273;28;20546;-85
2022/06/09 01:15:35;;;;;;;28.70;5.57;;;;;;;11.33;100.00;100776.38;5233664;22;20048;-85
2022/06/09 01:18:31;;;;;;;30.20;5.20;;;;;;;11.31;100.00;100768.59;5049778;28;20337;-85
2022/06/09 01:21:09;;;;;;;32.08;5.80;;;;;;;11.33;100.00;100777.16;5031087;28;20052;-86
2022/06/09 01:23:45;;;;;;;30.55;6.28;;;;;;;11.34;100.00;100772.63;5045837;28;20328;-86
2022/06/09 01:26:32;;;;;;;35.67;6.05;;;;;;;11.36;100.00;100778.53;5051702;28;20063;-86
2022/06/09 01:29:03;;;;;;;27.95;5.45;;;;;;;11.39;100.00;100774.50;5039455;28;20507;-86
2022/06/09 01:31:40;;;;;;;34.40;6.60;;;;;;;11.27;100.00;100764.00;5030102;28;20561;-85
2022/06/09 01:34:14;;;;;;;29.73;6.40;;;;;;;11.42;100.00;100782.03;5037860;28;20133;-86
2022/06/09 01:37:01;;;;;;;37.88;6.60;;;;;;;11.41;100.00;100778.53;5039210;28;20029;-86
2022/06/09 01:39:48;;;;;;;29.27;6.68;;;;;;;11.42;100.00;100777.47;5048399;28;20025;-86
2022/06/09 01:42:29;;;;;;;27.83;6.40;;;;;;;11.42;100.00;100790.88;5029467;28;20485;-86
2022/06/09 01:44:58;;;;;;;30.73;6.70;;;;;;;11.39;100.00;100782.56;5029557;28;20406;-85
2022/06/09 01:47:32;;;;;;;31.55;6.35;;;;;;;11.46;100.00;100796.53;5029038;28;20530;-86
2022/06/09 01:50:00;;;;;;;28.92;7.00;;;;;;;11.45;100.00;100795.72;5030791;28;20099;-85
2022/06/09 01:52:27;;;;;;;42.05;7.35;;;;;;;11.44;100.00;100790.63;5029064;28;20116;-86
2022/06/09 01:54:54;;;;;;;38.45;7.57;;;;;;;11.45;100.00;100800.28;5030099;28;20021;-86
2022/06/09 01:57:27;;;;;;;36.95;7.63;;;;;;;11.40;100.00;100790.38;5030324;28;20102;-86
2022/06/09 02:00:09;;;;;;;42.95;7.60;;;;;;;11.46;100.00;100805.38;5030816;28;20649;-86
2022/06/09 02:02:47;;;;;;;30.10;6.97;;;;;;;11.45;100.00;100800.28;5031570;28;20033;-86
2022/06/09 02:05:26;;;;;;;39.70;7.78;;;;;;;11.42;100.00;100804.28;5043265;28;20033;-86
2022/06/09 02:07:54;;;;;;;37.60;7.50;;;;;;;11.34;100.00;100794.88;5036649;28;20026;-86
2022/06/09 02:10:22;;;;;;;30.80;6.80;;;;;;;11.34;100.00;100802.13;5029739;28;20332;-86
2022/06/09 02:12:49;;;;;;;41.65;7.57;;;;;;;11.20;100.00;100799.13;5036456;28;20025;-86
2022/06/09 02:15:21;;;;;;;38.92;7.65;;;;;;;11.20;100.00;100804.50;5038281;28;20044;-86
2022/06/09 02:17:49;;;;;;;38.75;7.07;;;;;;;11.22;100.00;100807.72;5030296;28;20022;-86
2022/06/09 02:20:18;;;;;;;30.83;7.18;;;;;;;11.25;100.00;100812.56;5028079;28;20132;-86
2022/06/09 02:22:43;;;;;;;42.63;7.97;;;;;;;11.26;100.00;100819.53;5034284;28;20028;-86
2022/06/09 02:25:15;;;;;;;39.47;8.33;;;;;;;11.26;100.00;100814.19;5043406;28;20021;-86
2022/06/09 02:27:40;;;;;;;33.80;7.63;;;;;;;11.28;100.00;100821.94;5029900;28;20469;-86
2022/06/09 02:30:07;;;;;;;44.00;8.53;;;;;;;11.20;100.00;100809.84;5029871;28;20036;-85
2022/06/09 02:32:34;;;;;;;39.08;8.40;;;;;;;11.26;100.00;100818.72;5030790;28;20102;-85
2022/06/09 02:34:59;;;;;;;40.58;8.18;;;;;;;11.27;100.00;100821.16;5049901;28;20079;-84
2022/06/09 02:37:25;;;;;;;44.17;8.97;;;;;;;11.35;100.00;100834.06;5030232;28;20041;-85
2022/06/09 02:39:50;;;;;;;40.70;8.63;;;;;;;11.32;100.00;100834.56;5028950;28;20381;-86
2022/06/09 02:42:15;;;;;;;38.67;9.87;;;;;;;11.29;100.00;100835.13;5029779;28;20288;-87
2022/06/09 02:44:41;;;;;;;47.20;8.97;;;;;;;11.36;100.00;100843.72;5056382;22;20131;-86
2022/06/09 02:47:09;;;;;;;44.50;8.73;;;;;;;11.34;100.00;100845.84;5046888;28;20469;-86
2022/06/09 02:49:34;;;;;;;47.17;8.85;;;;;;;11.33;100.00;100838.88;5048625;28;20036;-86
2022/06/09 02:52:00;;;;;;;37.53;9.40;;;;;;;11.33;100.00;100848.81;5048242;28;20395;-85
2022/06/09 02:54:25;;;;;;;38.57;9.47;;;;;;;11.35;100.00;100839.41;5049103;28;20029;-85
2022/06/09 02:56:53;;;;;;;45.40;9.47;;;;;;;11.36;100.00;100845.59;5049914;28;20040;-85
2022/06/09 02:59:19;;;;;;;44.50;8.10;;;;;;;11.30;100.00;100839.41;5045138;28;20276;-86
2022/06/09 03:01:44;;;;;;;34.88;9.27;;;;;;;11.36;100.00;100850.97;5032240;28;20029;-85
2022/06/09 03:04:09;;;;;;;41.47;8.93;;;;;;;11.35;100.00;100860.88;5036398;28;20075;-85
2022/06/09 03:06:35;;;;;;;48.07;9.23;;;;;;;11.32;100.00;100868.66;5055848;28;20481;-86
2022/06/09 03:09:01;;;;;;;42.58;9.27;;;;;;;11.27;100.00;100858.72;5037175;28;20361;-86
2022/06/09 03:11:26;;;;;;;43.87;8.70;;;;;;;11.22;100.00;100845.28;5030389;28;20040;-86
2022/06/09 03:13:51;;;;;;;46.07;10.20;;;;;;;11.32;100.00;100866.75;5029434;28;20028;-86
2022/06/09 03:16:17;;;;;;;40.07;10.17;;;;;;;11.40;100.00;100872.72;5029722;28;20026;-88
2022/06/09 03:18:44;;;;;;;44.83;9.90;;;;;;;11.38;100.00;100877.53;5025716;28;20124;-86
2022/06/09 03:21:11;;;;;;;44.33;11.25;;;;;;;11.40;100.00;100876.22;5048522;28;20714;-84
2022/06/09 03:23:36;;;;;;;44.30;10.18;;;;;;;11.43;100.00;100886.41;5055822;22;20037;-84
2022/06/09 03:26:02;;;;;;;44.90;10.07;;;;;;;11.43;100.00;100893.66;5046472;28;20111;-87
2022/06/09 03:28:28;;;;;;;45.07;9.83;;;;;;;11.42;100.00;100895.50;5034996;28;20036;-87
2022/06/09 03:30:54;;;;;;;42.17;10.17;;;;;;;11.40;100.00;100888.81;5047287;28;20337;-87
2022/06/09 03:33:20;;;;;;;47.45;9.80;;;;;;;11.39;100.00;100892.56;5048390;28;20025;-92
2022/06/09 03:35:45;;;;;;;44.63;9.80;;;;;;;11.39;100.00;100898.75;5028247;28;20080;-92
2022/06/09 03:38:10;;;;;;;42.70;10.17;;;;;;;11.34;100.00;100896.81;5027824;28;20124;-92
2022/06/09 03:40:36;;;;;;;37.67;9.50;;;;;;;11.33;100.00;100892.53;5030119;28;20041;-90
2022/06/09 03:43:06;;;;;;;46.63;9.75;;;;;;;11.36;100.00;100901.94;5030102;28;20029;-90
2022/06/09 03:45:37;;;;;;;38.73;8.73;;;;;;;11.40;100.00;100915.63;5036010;28;20432;-88
2022/06/09 03:48:05;;;;;;;49.05;10.80;;;;;;;11.41;100.00;100923.41;5029262;28;20054;-86
2022/06/09 03:50:37;;;;;;;45.60;10.07;;;;;;;11.39;100.00;100924.75;5009080;28;20022;-86
2022/06/09 03:55:40;;;;;;;40.10;8.95;;;;;;;11.23;100.00;100926.56;5204455;23;20061;-91
2022/06/09 04:00:41;;;;;;;43.78;9.43;;;;;;;11.10;100.00;100933.19;5235732;22;20053;-91
2022/06/09 04:03:06;;;;;;;40.23;8.83;;;;;;;10.97;100.00;100932.53;5033064;28;20037;-91
2022/06/09 04:05:32;;;;;;;37.90;8.80;;;;;;;11.01;100.00;100946.25;5032485;28;20120;-91
2022/06/09 04:07:59;;;;;;;38.00;8.98;;;;;;;10.95;100.00;100944.59;5036740;28;20029;-90
2022/06/09 04:10:30;;;;;;;43.38;9.35;;;;;;;10.82;100.00;100943.16;5050304;28;20043;-87
2022/06/09 04:12:55;;;;;;;35.35;8.93;;;;;;;10.88;100.00;100942.16;5045969;28;20025;-87
2022/06/09 04:15:21;;;;;;;51.70;10.10;;;;;;;10.92;100.00;100967.38;5069655;28;20388;-87
2022/06/09 04:17:47;;;;;;;38.05;9.85;;;;;;;10.94;100.00;100959.91;5034694;28;20040;-87
2022/06/09 04:20:17;;;;;;;47.63;10.20;;;;;;;10.97;100.00;100966.59;5041608;28;20040;-89
2022/06/09 04:22:42;;;;;;;46.80;10.37;;;;;;;10.95;100.00;100952.66;5044503;28;20295;-86
2022/06/09 04:25:08;;;;;;;46.58;10.55;;;;;;;10.94;100.00;100953.72;5051953;28;20025;-87
2022/06/09 04:27:34;;;;;;;45.53;10.93;;;;;;;11.02;100.00;100959.41;5052107;28;20029;-87
2022/06/09 04:29:59;;;;;;;44.83;10.57;;;;;;;11.14;100.00;100966.44;5063787;28;20028;-87
2022/06/09 04:32:25;;;;;;;38.27;10.20;;;;;;;11.22;100.00;100968.66;5046375;28;20108;-87
2022/06/09 04:34:53;;;;;;;52.53;12.20;;;;;;;11.26;100.00;100966.25;5069772;28;20024;-87
2022/06/09 04:37:18;;;;;;;41.33;10.95;;;;;;;11.36;100.00;100985.91;5037732;28;20030;-88
2022/06/09 04:39:43;;;;;;;46.08;10.90;;;;;;;11.41;100.00;100970.91;5057524;28;20025;-87
2022/06/09 04:42:09;;;;;;;42.13;10.20;;;;;;;11.45;100.00;100988.13;5045763;28;20480;-87
2022/06/09 04:44:34;;;;;;;44.63;11.40;;;;;;;11.50;100.00;100996.19;5050046;28;20025;-87
2022/06/09 04:47:00;;;;;;;38.87;11.50;;;;;;;11.42;100.00;100980.56;5051724;28;20032;-87
2022/06/09 04:49:25;;;;;;;44.25;10.75;;;;;;;11.44;100.00;100984.59;5052285;28;20534;-88
2022/06/09 04:51:50;;;;;;;41.27;11.47;;;;;;;11.80;100.00;100975.94;5050987;28;20538;-89
2022/06/09 04:54:16;;;;;;;56.20;13.73;;;;;;;12.49;100.00;100989.34;5051922;28;20112;-87
2022/06/09 04:56:41;;;;;;;52.43;14.43;;;;;;;13.15;100.00;100996.59;5050845;28;20048;-88
2022/06/09 04:59:06;;;;;;;53.93;15.27;;;;;;;13.58;100.00;100998.97;5047265;28;20074;-87
2022/06/09 05:01:32;;;;;;;38.83;13.60;;;;;;;13.89;100.00;101014.19;5051015;28;20028;-87
2022/06/09 05:03:59;;;;;;;49.97;12.23;;;;;;;14.09;100.00;101016.00;5046665;28;20078;-87
2022/06/09 05:06:26;;;;;;;35.08;10.27;;;;;;;14.38;100.00;101026.09;5050167;28;20029;-86
2022/06/09 05:08:53;;;;;;;27.90;9.55;;;;;;;14.35;100.00;101015.88;5037449;28;20024;-86
2022/06/09 05:11:19;;;;;;;19.73;7.67;;;;;;;14.36;100.00;101039.03;5044504;28;20028;-86
2022/06/09 05:13:46;;;;;;;22.73;7.77;;;;;;;14.59;100.00;101034.06;5050855;28;20366;-85
2022/06/09 05:16:12;;;;;;;35.67;9.35;;;;;;;14.97;100.00;101045.94;5049446;28;20457;-85
2022/06/09 05:18:38;;;;;;;31.48;8.50;;;;;;;15.06;100.00;101069.63;5051713;28;20070;-85
2022/06/09 05:21:05;;;;;;;30.45;8.35;;;;;;;15.40;100.00;101064.22;5049223;28;20486;-87
2022/06/09 05:23:31;;;;;;;33.50;8.70;;;;;;;15.57;100.00;101066.47;5051194;28;20075;-87
2022/06/09 05:26:05;;;;;;;33.28;8.15;;;;;;;15.92;100.00;101066.41;5051228;28;20029;-86
2022/06/09 05:28:32;;;;;;;23.00;7.47;;;;;;;16.27;100.00;101074.34;5049684;28;20110;-86
2022/06/09 05:30:57;;;;;;;21.07;6.53;;;;;;;15.78;100.00;101068.97;5055619;28;20292;-86
2022/06/09 05:33:23;;;;;;;22.17;6.78;;;;;;;15.52;100.00;101079.22;5045652;28;20032;-87
2022/06/09 05:35:49;;;;;;;28.60;7.83;;;;;;;16.38;100.00;101083.16;5040357;28;20671;-87
2022/06/09 05:46:32;;;;;;;18.95;5.50;;;;;;;16.97;98.49;101085.59;5052027;28;20036;-92
2022/06/09 05:48:57;;;;;;;23.08;6.22;;;;;;;16.44;100.00;101099.00;5051875;28;20017;-93
2022/06/09 05:51:22;;;;;;;23.07;6.33;;;;;;;16.94;100.00;101106.69;5051869;28;20471;-89
2022/06/09 05:53:51;;;;;;;20.40;6.10;;;;;;;16.93;100.00;101104.28;5293299;22;20405;-90
2022/06/09 05:56:16;;;;;;;21.35;5.50;;;;;;;15.94;100.00;101071.53;5046059;28;20044;-91
2022/06/09 05:58:46;;;;;;;20.43;5.70;;;;;;;15.51;100.00;101110.84;5049873;28;20025;-92
2022/06/09 06:01:13;;;;;;;24.85;6.85;;;;;;;15.56;100.00;101112.69;5050124;28;20037;-92
2022/06/09 06:03:39;;;;;;;27.83;6.50;;;;;;;16.01;100.00;101096.31;5072703;22;20052;-92
2022/06/09 06:08:57;;;;;;;15.65;6.15;;;;;;;16.34;100.00;101128.91;5010168;28;20040;-91
2022/06/09 06:11:23;;;;;;;18.33;5.20;;;;;;;16.66;100.00;101127.41;5010191;28;20038;-91
2022/06/09 06:13:49;;;;;;;20.33;5.70;;;;;;;16.90;100.00;101142.78;5029275;28;20025;-91
2022/06/09 06:16:14;;;;;;;15.77;5.53;;;;;;;16.94;100.00;101135.69;5049997;28;20070;-92
2022/06/09 06:18:39;;;;;;;16.80;5.63;;;;;;;17.14;100.00;101133.78;5049429;28;20029;-92
2022/06/09 06:21:05;;;;;;;26.93;6.10;;;;;;;17.62;100.00;101149.78;5054355;28;20048;-91
2022/06/09 06:23:31;;;;;;;16.35;5.18;;;;;;;18.08;100.00;101156.31;5029774;28;20053;-92
2022/06/09 06:25:57;;;;;;;18.35;5.05;;;;;;;18.46;98.90;101163.41;5031094;28;20029;-91
2022/06/09 06:28:24;;;;;;;21.20;5.00;;;;;;;18.59;96.49;101162.59;5035729;28;20033;-93
2022/06/09 06:30:49;;;;;;;20.50;4.50;;;;;;;18.36;92.36;101152.78;5048804;28;20041;-93
2022/06/09 06:33:16;;;;;;;12.90;4.05;;;;;;;18.40;95.92;101164.63;5029599;28;20119;-93
2022/06/09 06:35:41;;;;;;;18.15;4.82;;;;;;;18.35;93.84;101165.53;5030707;28;20033;-94
2022/06/09 06:38:09;;;;;;;14.23;4.33;;;;;;;18.07;93.73;101173.66;5039763;28;20052;-93
2022/06/09 06:40:35;;;;;;;18.70;4.20;;;;;;;17.91;96.44;101180.44;5036919;28;20037;-90
2022/06/09 06:43:00;;;;;;;14.52;4.43;;;;;;;17.61;96.39;101169.84;5029878;28;20037;-89
2022/06/09 06:45:27;;;;;;;13.17;4.17;;;;;;;17.24;96.34;101174.22;5043450;28;20037;-91
2022/06/09 06:47:54;;;;;;;22.02;4.47;;;;;;;17.13;98.90;101184.41;5042136;28;20106;-90
2022/06/09 06:50:19;;;;;;;17.73;4.45;;;;;;;17.03;98.96;101174.53;5029369;28;20474;-91
2022/06/09 06:52:45;;;;;;;17.57;3.97;;;;;;;16.91;96.77;101182.28;5043989;28;20040;-89
2022/06/09 06:55:13;;;;;;;13.23;4.30;;;;;;;16.73;98.75;101192.78;5032960;28;20109;-88
2022/06/09 06:57:38;;;;;;;12.55;3.80;;;;;;;16.58;98.82;101196.47;5030177;28;20036;-91
2022/06/09 07:00:06;;;;;;;12.53;3.93;;;;;;;16.55;99.68;101217.91;5020672;28;20032;-90
2022/06/09 07:02:31;;;;;;;17.80;4.13;;;;;;;16.51;100.00;101206.88;5044255;28;20075;-87
2022/06/09 07:04:57;;;;;;;15.27;4.20;;;;;;;16.53;98.29;101217.38;5052919;28;20025;-90
2022/06/09 07:07:22;;;;;;;14.50;4.00;;;;;;;16.46;100.00;101206.91;5052488;28;20380;-89
2022/06/09 07:09:47;;;;;;;11.50;3.43;;;;;;;16.47;99.84;101212.03;5052669;28;20376;-90
2022/06/09 07:12:13;;;;;;;17.30;4.13;;;;;;;16.43;98.67;101221.00;5031203;28;20035;-88
2022/06/09 07:14:38;;;;;;;13.43;4.03;;;;;;;16.38;99.24;101221.88;5040490;28;20094;-88
2022/06/09 07:17:05;;;;;;;11.73;4.10;;;;;;;16.33;100.00;101230.03;5029813;28;20094;-88
2022/06/09 07:19:30;;;;;;;10.95;4.32;;;;;;;16.45;100.00;101241.25;5032867;28;20056;-89
2022/06/09 07:21:55;;;;;;;12.35;4.35;;;;;;;16.59;100.00;101240.59;5044977;28;20435;-88
2022/06/09 07:24:21;;;;;;;7.60;3.40;;;;;;;16.73;98.89;101243.38;5028457;28;20026;-88
2022/06/09 07:26:47;;;;;;;8.17;3.37;;;;;;;16.76;97.84;101242.81;5032826;28;20049;-88
2022/06/09 07:29:12;;;;;;;13.30;3.65;;;;;;;16.76;97.71;101249.03;5049464;28;20036;-88
2022/06/09 07:31:37;;;;;;;9.20;2.90;;;;;;;16.71;98.98;101242.84;5042186;28;20086;-88
2022/06/09 07:34:03;;;;;;;9.53;3.47;;;;;;;16.67;97.25;101247.25;5035447;28;20036;-91
2022/06/09 07:36:28;;;;;;;9.65;3.58;;;;;;;16.65;98.90;101245.66;5033046;28;20114;-90
2022/06/09 07:38:54;;;;;;;9.53;3.17;;;;;;;16.66;97.64;101246.44;5032680;28;20039;-88
2022/06/09 07:41:20;;;;;;;8.67;3.13;;;;;;;16.90;99.65;101262.66;5039230;28;20025;-89
2022/06/09 07:43:49;;;;;;;6.78;3.25;;;;;;;17.18;98.05;101256.63;5045893;28;20491;-88
2022/06/09 07:46:16;;;;;;;6.75;3.08;;;;;;;17.29;94.78;101262.72;5049504;28;20026;-88
2022/06/09 07:48:42;;;;;;;6.30;3.80;;;;;;;17.30;93.14;101259.72;5051405;28;20119;-89
2022/06/09 07:51:08;;;;;;;9.57;4.20;;;;;;;17.22;92.96;101263.09;5043678;28;20859;-88
2022/06/09 07:53:34;;;;;;;8.40;3.72;;;;;;;17.31;92.98;101257.81;5039113;28;20646;-88
2022/06/09 07:56:00;;;;;;;10.43;4.00;;;;;;;17.32;93.75;101249.41;5036666;28;20030;-88
2022/06/09 07:58:26;;;;;;;7.13;3.55;;;;;;;17.53;93.35;101259.91;5027021;28;20048;-88
2022/06/09 08:00:51;;;;;;;7.50;3.53;;;;;;;17.71;92.20;101248.25;5039570;28;20052;-89
2022/06/09 08:03:21;;;;;;;4.17;2.27;;;;;;;17.83;89.13;101249.72;5052181;28;20033;-88
2022/06/09 08:05:47;;;;;;;5.78;2.00;;;;;;;17.96;91.03;101273.34;5032873;28;20507;-88
2022/06/09 08:08:12;;;;;;;5.03;1.67;;;;;;;18.16;89.70;101264.09;5035094;28;20060;-88
2022/06/09 08:10:39;;;;;;;5.10;1.63;;;;;;;18.44;87.46;101268.75;5027553;28;20124;-89
2022/06/09 08:13:05;;;;;;;4.60;1.70;;;;;;;18.88;86.17;101280.88;5034769;28;20029;-88
2022/06/09 08:15:31;;;;;;;4.20;1.40;;;;;;;19.06;81.58;101294.66;5050395;28;20033;-89
2022/06/09 08:17:59;;;;;;;1.53;1.10;;;;;;;19.07;82.07;101279.97;5050789;28;20403;-88
2022/06/09 08:20:27;;;;;;;3.00;1.00;;;;;;;19.25;81.73;101291.00;5034020;28;20323;-89
2022/06/09 08:23:03;;;;;;;2.45;1.10;;;;;;;19.46;82.54;101299.50;5051139;28;20473;-88
2022/06/09 08:25:28;;;;;;;2.33;1.20;;;;;;;19.66;79.09;101298.25;5020080;28;20085;-90
2022/06/09 08:27:54;;;;;;;4.50;1.23;;;;;;;19.93;78.43;101297.34;5052362;28;20435;-86
2022/06/09 08:30:19;;;;;;;3.50;1.20;;;;;;;20.19;79.23;101307.56;5048042;28;20025;-88
2022/06/09 08:32:45;;;;;;;3.10;1.33;;;;;;;20.25;75.24;101310.97;5040729;28;20055;-89
2022/06/09 08:35:15;;;;;;;4.27;1.30;;;;;;;20.09;76.48;101310.56;5032370;28;20029;-89
2022/06/09 08:37:41;;;;;;;3.42;1.42;;;;;;;20.00;78.28;101317.84;5013961;28;20445;-89
2022/06/09 08:40:07;;;;;;;3.72;1.60;;;;;;;20.25;80.17;101327.28;5038209;28;20076;-89
2022/06/09 08:42:51;;;;;;;7.35;1.90;;;;;;;20.49;76.66;101309.78;5037168;28;20083;-89
2022/06/09 08:45:27;;;;;;;6.63;1.80;;;;;;;21.02;77.20;101332.59;5043343;28;20032;-88
2022/06/09 08:47:54;;;;;;;4.47;1.70;;;;;;;21.32;71.96;101325.44;5040839;28;20401;-88
2022/06/09 08:50:32;;;;;;;5.30;1.75;;;;;;;21.44;74.64;101324.00;5041701;28;20385;-89
2022/06/09 08:53:04;;;;;;;3.15;1.60;;;;;;;21.31;72.52;101340.19;5031611;28;20034;-88
2022/06/09 08:55:47;;;;;;;2.70;1.50;;;;;;;21.25;75.31;101343.38;5016544;28;20041;-87
2022/06/09 08:58:25;;;;;;;2.85;1.50;;;;;;;20.85;71.89;101344.22;5038271;28;20063;-88
2022/06/09 09:01:09;;;;;;;4.97;1.50;;;;;;;20.58;73.07;101335.13;5041224;28;20030;-88
2022/06/09 09:03:38;;;;;;;2.80;0.95;;;;;;;20.29;71.83;101344.59;5046490;28;20111;-89
2022/06/09 09:06:13;;;;;;;2.63;0.90;;;;;;;20.15;70.18;101352.03;5034177;28;20025;-88
2022/06/09 09:08:38;;;;;;;3.47;0.90;;;;;;;19.92;67.09;101349.31;5031739;28;20032;-88
2022/06/09 09:11:19;;;;;;;5.03;0.93;;;;;;;19.62;67.41;101349.72;5030928;28;20647;-88
2022/06/09 09:13:54;;;;;;;3.63;1.02;;;;;;;19.48;70.22;101357.88;5038604;28;20036;-88
2022/06/09 09:16:20;;;;;;;1.83;0.75;;;;;;;19.65;70.69;101365.38;5046725;28;20120;-88
2022/06/09 09:18:53;;;;;;;2.93;0.90;;;;;;;19.36;67.36;101363.03;5049281;28;20175;-87
2022/06/09 09:21:37;;;;;;;2.38;1.00;;;;;;;19.39;69.00;101370.56;5046676;28;20040;-87
2022/06/09 09:24:32;;;;;;;2.53;0.90;;;;;;;19.26;69.42;101374.94;5034142;28;20026;-87
2022/06/09 09:27:14;;;;;;;1.98;0.90;;;;;;;19.04;68.73;101371.03;5046384;28;20541;-87
2022/06/09 09:30:03;;;;;;;4.10;1.20;;;;;;;19.10;71.24;101377.16;5049693;28;20021;-86
2022/06/09 09:32:43;;;;;;;2.93;1.03;;;;;;;19.30;72.44;101375.13;5050216;28;20291;-87
2022/06/09 09:35:40;;;;;;;3.92;1.20;;;;;;;19.95;73.82;101386.75;5033105;28;20029;-88
2022/06/09 09:38:07;;;;;;;2.17;1.10;;;;;;;20.10;68.91;101391.84;5048983;28;20028;-87
2022/06/09 09:40:36;;;;;;;5.57;1.17;;;;;;;20.14;67.09;101381.16;5038552;28;20030;-87
2022/06/09 09:43:09;;;;;;;2.60;1.35;;;;;;;20.23;69.35;101392.09;5041613;28;20036;-87
2022/06/09 09:45:38;;;;;;;5.28;2.00;;;;;;;20.08;67.48;101402.25;5050067;28;20543;-87
2022/06/09 09:48:24;;;;;;;6.72;1.90;;;;;;;20.00;70.61;101402.16;5041756;28;20036;-89
2022/06/09 09:50:54;;;;;;;3.78;1.83;;;;;;;19.80;68.48;101405.00;5031187;28;20049;-90
2022/06/09 09:53:19;;;;;;;4.03;1.90;;;;;;;19.75;68.75;101412.50;5042163;28;20021;-89
2022/06/09 09:55:59;;;;;;;5.40;1.93;;;;;;;19.76;69.58;101398.56;5052310;28;20037;-90
2022/06/09 09:58:30;;;;;;;4.07;2.40;;;;;;;19.96;69.17;101410.94;5032838;28;20053;-89
2022/06/09 10:01:05;;;;;;;5.60;2.40;;;;;;;20.36;69.97;101413.00;5030725;28;20053;-89
2022/06/09 10:09:31;;;;;;;5.55;2.85;;;;;;;21.36;66.46;101403.84;5036953;28;20152;-88
2022/06/09 10:12:02;;;;;;;5.35;2.90;;;;;;;21.67;64.71;101424.75;5036296;28;20328;-88
2022/06/09 10:14:28;;;;;;;6.75;3.10;;;;;;;21.58;63.41;101425.50;5031121;28;20449;-89
2022/06/09 10:16:54;;;;;;;6.90;3.00;;;;;;;21.57;64.33;101429.34;5044027;28;20053;-88
2022/06/09 10:19:24;;;;;;;9.75;3.40;;;;;;;21.60;65.53;101426.03;5033802;28;20025;-91
2022/06/09 10:21:51;;;;;;;6.85;3.10;;;;;;;21.55;64.22;101430.81;5038081;28;20460;-89
2022/06/09 10:24:22;;;;;;;6.10;3.10;;;;;;;21.32;65.76;101423.56;5043845;28;20040;-89
2022/06/09 10:26:57;;;;;;;5.20;3.10;;;;;;;21.56;65.92;101427.75;5031296;28;20129;-87
2022/06/09 10:29:49;;;;;;;6.93;3.10;;;;;;;21.76;68.03;101431.84;5049656;28;20047;-89
2022/06/09 10:32:21;;;;;;;4.40;3.10;;;;;;;21.77;65.54;101438.91;5048707;28;20041;-89
2022/06/09 10:35:06;;;;;;;5.33;3.70;;;;;;;21.70;68.28;101441.28;5048968;28;20291;-89
2022/06/09 10:37:58;;;;;;;6.20;3.45;;;;;;;21.55;70.69;101447.94;5029466;28;20473;-88
2022/06/09 10:40:40;;;;;;;6.18;3.90;;;;;;;21.13;70.61;101442.88;5014938;28;20022;-88
2022/06/09 10:43:20;;;;;;;5.88;4.47;;;;;;;20.31;75.24;101443.03;5029378;28;20084;-87
2022/06/09 10:46:27;;;;;;;6.65;4.50;;;;;;;19.68;76.10;101445.53;5030203;28;20022;-89
2022/06/09 10:55:15;;;;;;;8.18;6.10;;;;;;;19.33;87.13;101445.97;5027142;28;20099;-89
2022/06/09 10:57:54;;;;;;;7.38;6.65;;;;;;;19.69;83.71;101458.03;5029616;28;20037;-90
2022/06/09 11:00:25;;;;;;;8.83;7.70;;;;;;;20.05;82.77;101454.53;5027284;28;20032;-89
2022/06/09 11:02:56;;;;;;;10.97;8.07;;;;;;;20.51;80.58;101465.44;5025650;28;21218;-89
2022/06/09 11:05:33;;;;;;;10.38;7.57;;;;;;;20.95;78.07;101455.63;5031069;28;20025;-89
2022/06/09 11:08:37;;;;;;;8.32;6.18;;;;;;;21.17;73.54;101464.88;5033755;28;20108;-88
2022/06/09 11:11:36;;;;;;;9.43;6.40;;;;;;;21.76;74.28;101463.75;4969753;28;20046;-88
2022/06/09 11:14:39;;;;;;;7.38;5.47;;;;;;;22.49;72.30;101465.06;5020275;28;20033;-88
2022/06/09 11:17:34;;;;;;;8.45;4.43;;;;;;;23.12;66.35;101465.34;5032245;28;20040;-88
2022/06/09 11:20:13;;;;;;;7.72;4.00;;;;;;;23.18;65.39;101476.13;5023329;28;20052;-89
2022/06/09 11:22:57;;;;;;;7.80;3.42;;;;;;;23.11;64.08;101474.69;5013918;28;20088;-89
2022/06/09 11:25:31;;;;;;;7.22;2.85;;;;;;;22.79;58.60;101471.44;5013665;28;20109;-89
2022/06/09 11:28:13;;;;;;;7.50;2.73;;;;;;;23.37;58.17;101471.03;5024377;28;20030;-89
2022/06/09 11:30:57;;;;;;;8.53;2.53;;;;;;;24.29;60.57;101468.63;5032875;28;20771;-88
2022/06/09 11:33:22;;;;;;;7.93;2.50;;;;;;;24.72;54.87;101466.66;5032713;28;20397;-89
2022/06/09 11:36:23;;;;;;;6.82;2.55;;;;;;;24.97;55.75;101466.66;5032708;28;20037;-89
2022/06/09 11:39:26;;;;;;;8.75;2.50;;;;;;;24.84;54.22;101476.03;5028805;28;20069;-89
2022/06/09 11:42:06;;;;;;;8.97;2.70;;;;;;;24.27;54.58;101472.84;5080286;22;20051;-89
2022/06/09 11:44:38;;;;;;;7.00;2.40;;;;;;;24.41;53.75;101475.31;5052451;28;20291;-89
2022/06/09 11:47:10;;;;;;;6.60;2.42;;;;;;;23.98;53.04;101480.81;5052703;28;20047;-89
2022/06/09 11:49:39;;;;;;;7.25;2.00;;;;;;;23.02;49.34;101492.25;5052438;28;20087;-89
2022/06/09 11:52:17;;;;;;;10.00;2.05;;;;;;;22.32;54.50;101493.97;5050279;28;20032;-88
2022/06/09 11:54:48;;;;;;;7.88;3.08;;;;;;;22.22;57.68;101507.91;5052774;28;20021;-88
2022/06/09 11:57:16;;;;;;;6.10;1.92;;;;;;;22.22;56.31;101503.28;5026022;28;20568;-89
2022/06/09 12:00:04;;;;;;;7.13;1.92;;;;;;;22.33;56.18;101509.22;5022201;28;20424;-88
2022/06/09 12:02:38;;;;;;;5.85;1.63;;;;;;;22.19;55.01;101503.91;5031986;28;20396;-88
2022/06/09 12:05:16;;;;;;;5.05;1.85;;;;;;;22.00;54.69;101512.38;5032932;28;20548;-89
2022/06/09 12:08:15;;;;;;;4.77;1.57;;;;;;;21.77;56.47;101504.34;5031497;28;20029;-89
2022/06/09 12:10:56;;;;;;;8.50;2.30;;;;;;;21.61;57.76;101520.34;5011804;28;20371;-88
2022/06/09 12:13:27;;;;;;;6.72;1.73;;;;;;;21.58;58.08;101499.13;5019609;28;20045;-89
2022/06/09 12:16:05;;;;;;;6.88;1.90;;;;;;;21.70;58.15;101525.03;5031681;28;20355;-88
2022/06/09 12:18:30;;;;;;;7.38;1.90;;;;;;;21.72;57.51;101517.34;5031970;28;20078;-88
2022/06/09 12:21:16;;;;;;;9.70;2.60;;;;;;;21.76;57.08;101512.84;5031855;28;20029;-89
2022/06/09 12:24:04;;;;;;;6.15;2.40;;;;;;;21.70;57.65;101508.66;5012712;28;20464;-89
2022/06/09 12:26:44;;;;;;;6.95;2.10;;;;;;;21.69;60.13;101528.88;5029381;28;20439;-89
2022/06/09 12:29:34;;;;;;;10.15;2.28;;;;;;;21.73;59.32;101524.38;5016354;28;20021;-89
2022/06/09 12:32:08;;;;;;;6.50;2.20;;;;;;;21.76;59.40;101527.28;5031597;28;20033;-89
2022/06/09 12:34:42;;;;;;;6.53;1.90;;;;;;;21.66;57.21;101529.50;5031922;28;20040;-89
2022/06/09 12:37:32;;;;;;;6.60;1.80;;;;;;;21.59;58.28;101540.84;5032352;28;20041;-88
2022/06/09 12:40:03;;;;;;;6.03;1.80;;;;;;;21.66;59.12;101545.88;5032711;28;20280;-88
2022/06/09 12:42:46;;;;;;;7.15;2.15;;;;;;;21.55;59.47;101553.50;5032177;28;20048;-88
2022/06/09 12:45:27;;;;;;;9.02;2.30;;;;;;;21.36;61.78;101542.84;5016053;28;20117;-88
2022/06/09 12:48:00;;;;;;;6.30;2.90;;;;;;;21.22;63.59;101553.84;5013300;28;20729;-90
2022/06/09 12:50:33;;;;;;;8.98;3.15;;;;;;;21.00;63.95;101553.53;5012067;28;20034;-88
2022/06/09 12:52:59;;;;;;;8.65;3.30;;;;;;;20.90;65.67;101542.91;4994263;28;20080;-89
2022/06/09 12:55:28;;;;;;;9.45;3.10;;;;;;;21.20;64.10;101556.84;5012287;28;20114;-89
2022/06/09 12:58:03;;;;;;;7.13;3.03;;;;;;;21.58;64.93;101556.38;4994447;28;20040;-88
2022/06/09 13:00:39;;;;;;;9.82;2.75;;;;;;;22.56;61.25;101569.13;5022980;28;20548;-89
2022/06/09 13:03:39;;;;;;;8.10;2.30;;;;;;;23.39;59.93;101575.41;5029913;28;20037;-90
2022/06/09 13:06:19;;;;;;;6.00;2.23;;;;;;;23.44;56.14;101574.47;4960219;28;20767;-89